sensor_id;sensor_type;location;lat;lon;timestamp;P1;durP1;ratioP1;P2;durP2;ratioP2
34019;SDS011;20895;51.034;3.742;2024-03-25T00:00:17;13.27;;;7.82;;
34019;SDS011;20895;51.034;3.742;2024-03-25T00:02:43;15.80;;;8.20;;
34019;SDS011;20895;51.034;3.742;2024-03-25T00:05:08;14.88;;;8.63;;
34019;SDS011;20895;51.034;3.742;2024-03-25T00:07:37;14.75;;;9.20;;
34019;SDS011;20895;51.034;3.742;2024-03-25T00:10:02;18.58;;;9.20;;
34019;SDS011;20895;51.034;3.742;2024-03-25T00:12:28;14.25;;;9.60;;
34019;SDS011;20895;51.034;3.742;2024-03-25T00:14:53;18.23;;;9.95;;
34019;SDS011;20895;51.034;3.742;2024-03-25T00:17:18;22.35;;;10.93;;
34019;SDS011;20895;51.034;3.742;2024-03-25T00:19:45;19.63;;;10.75;;
34019;SDS011;20895;51.034;3.742;2024-03-25T00:22:15;15.32;;;9.32;;
34019;SDS011;20895;51.034;3.742;2024-03-25T00:24:40;16.05;;;10.60;;
34019;SDS011;20895;51.034;3.742;2024-03-25T00:27:06;17.95;;;11.70;;
34019;SDS011;20895;51.034;3.742;2024-03-25T00:29:31;19.75;;;11.00;;
34019;SDS011;20895;51.034;3.742;2024-03-25T00:31:56;17.67;;;11.55;;
34019;SDS011;20895;51.034;3.742;2024-03-25T00:34:21;22.10;;;11.20;;
34019;SDS011;20895;51.034;3.742;2024-03-25T00:36:47;18.15;;;10.70;;
34019;SDS011;20895;51.034;3.742;2024-03-25T00:39:13;15.48;;;10.07;;
34019;SDS011;20895;51.034;3.742;2024-03-25T00:41:38;14.73;;;10.80;;
34019;SDS011;20895;51.034;3.742;2024-03-25T00:44:03;19.88;;;12.25;;
34019;SDS011;20895;51.034;3.742;2024-03-25T00:46:29;13.60;;;10.15;;
34019;SDS011;20895;51.034;3.742;2024-03-25T00:48:54;18.10;;;12.85;;
34019;SDS011;20895;51.034;3.742;2024-03-25T00:51:19;16.75;;;10.88;;
34019;SDS011;20895;51.034;3.742;2024-03-25T00:53:44;16.55;;;9.80;;
34019;SDS011;20895;51.034;3.742;2024-03-25T00:56:10;18.40;;;10.27;;
34019;SDS011;20895;51.034;3.742;2024-03-25T00:58:35;14.07;;;8.95;;
34019;SDS011;20895;51.034;3.742;2024-03-25T01:01:00;12.90;;;8.63;;
34019;SDS011;20895;51.034;3.742;2024-03-25T01:03:25;15.98;;;9.98;;
34019;SDS011;20895;51.034;3.742;2024-03-25T01:05:51;15.48;;;9.65;;
34019;SDS011;20895;51.034;3.742;2024-03-25T01:08:16;15.93;;;9.75;;
34019;SDS011;20895;51.034;3.742;2024-03-25T01:10:41;16.15;;;10.25;;
34019;SDS011;20895;51.034;3.742;2024-03-25T01:13:07;20.42;;;11.05;;
34019;SDS011;20895;51.034;3.742;2024-03-25T01:15:32;17.88;;;9.65;;
34019;SDS011;20895;51.034;3.742;2024-03-25T01:17:57;16.08;;;10.02;;
34019;SDS011;20895;51.034;3.742;2024-03-25T01:20:22;20.30;;;10.95;;
34019;SDS011;20895;51.034;3.742;2024-03-25T01:22:48;19.20;;;10.05;;
34019;SDS011;20895;51.034;3.742;2024-03-25T01:25:13;18.05;;;10.68;;
34019;SDS011;20895;51.034;3.742;2024-03-25T01:27:38;18.15;;;9.35;;
34019;SDS011;20895;51.034;3.742;2024-03-25T01:30:04;18.23;;;10.55;;
34019;SDS011;20895;51.034;3.742;2024-03-25T01:32:29;19.65;;;9.93;;
34019;SDS011;20895;51.034;3.742;2024-03-25T01:34:55;19.80;;;9.63;;
34019;SDS011;20895;51.034;3.742;2024-03-25T01:37:20;21.58;;;10.60;;
34019;SDS011;20895;51.034;3.742;2024-03-25T01:39:46;16.63;;;9.88;;
34019;SDS011;20895;51.034;3.742;2024-03-25T01:42:11;20.58;;;10.90;;
34019;SDS011;20895;51.034;3.742;2024-03-25T01:44:36;16.85;;;10.50;;
34019;SDS011;20895;51.034;3.742;2024-03-25T01:47:02;24.38;;;12.50;;
34019;SDS011;20895;51.034;3.742;2024-03-25T01:49:28;15.57;;;8.93;;
34019;SDS011;20895;51.034;3.742;2024-03-25T01:51:53;13.88;;;8.38;;
34019;SDS011;20895;51.034;3.742;2024-03-25T01:54:18;13.38;;;9.65;;
34019;SDS011;20895;51.034;3.742;2024-03-25T01:56:44;15.70;;;10.48;;
34019;SDS011;20895;51.034;3.742;2024-03-25T01:59:11;11.95;;;8.85;;
34019;SDS011;20895;51.034;3.742;2024-03-25T02:01:37;15.20;;;8.73;;
34019;SDS011;20895;51.034;3.742;2024-03-25T02:04:03;16.08;;;8.35;;
34019;SDS011;20895;51.034;3.742;2024-03-25T02:06:28;11.93;;;8.57;;
34019;SDS011;20895;51.034;3.742;2024-03-25T02:08:56;10.52;;;8.75;;
34019;SDS011;20895;51.034;3.742;2024-03-25T02:11:22;13.38;;;8.15;;
34019;SDS011;20895;51.034;3.742;2024-03-25T02:13:48;14.15;;;8.57;;
34019;SDS011;20895;51.034;3.742;2024-03-25T02:16:13;13.43;;;8.75;;
34019;SDS011;20895;51.034;3.742;2024-03-25T02:18:39;13.55;;;8.55;;
34019;SDS011;20895;51.034;3.742;2024-03-25T02:21:04;11.63;;;7.47;;
34019;SDS011;20895;51.034;3.742;2024-03-25T02:23:30;11.38;;;9.20;;
34019;SDS011;20895;51.034;3.742;2024-03-25T02:25:56;8.85;;;7.63;;
34019;SDS011;20895;51.034;3.742;2024-03-25T02:28:21;12.23;;;8.60;;
34019;SDS011;20895;51.034;3.742;2024-03-25T02:30:46;11.07;;;8.10;;
34019;SDS011;20895;51.034;3.742;2024-03-25T02:33:12;11.95;;;9.18;;
34019;SDS011;20895;51.034;3.742;2024-03-25T02:35:38;11.40;;;9.00;;
34019;SDS011;20895;51.034;3.742;2024-03-25T02:38:04;12.23;;;8.10;;
34019;SDS011;20895;51.034;3.742;2024-03-25T02:40:29;13.82;;;7.70;;
34019;SDS011;20895;51.034;3.742;2024-03-25T02:42:55;11.45;;;8.15;;
34019;SDS011;20895;51.034;3.742;2024-03-25T02:45:20;14.45;;;7.95;;
34019;SDS011;20895;51.034;3.742;2024-03-25T02:47:45;14.15;;;8.50;;
34019;SDS011;20895;51.034;3.742;2024-03-25T02:50:11;16.17;;;8.27;;
34019;SDS011;20895;51.034;3.742;2024-03-25T02:52:36;14.70;;;8.20;;
34019;SDS011;20895;51.034;3.742;2024-03-25T02:55:01;15.10;;;9.20;;
34019;SDS011;20895;51.034;3.742;2024-03-25T02:57:26;16.88;;;10.02;;
34019;SDS011;20895;51.034;3.742;2024-03-25T02:59:52;14.32;;;8.88;;
34019;SDS011;20895;51.034;3.742;2024-03-25T03:02:17;12.50;;;8.95;;
34019;SDS011;20895;51.034;3.742;2024-03-25T03:04:42;11.68;;;7.70;;
34019;SDS011;20895;51.034;3.742;2024-03-25T03:07:07;14.45;;;8.75;;
34019;SDS011;20895;51.034;3.742;2024-03-25T03:09:33;16.83;;;9.07;;
34019;SDS011;20895;51.034;3.742;2024-03-25T03:11:59;16.45;;;9.38;;
34019;SDS011;20895;51.034;3.742;2024-03-25T03:14:24;13.82;;;8.55;;
34019;SDS011;20895;51.034;3.742;2024-03-25T03:16:49;15.38;;;8.85;;
34019;SDS011;20895;51.034;3.742;2024-03-25T03:19:19;20.42;;;9.32;;
34019;SDS011;20895;51.034;3.742;2024-03-25T03:21:44;15.32;;;9.18;;
34019;SDS011;20895;51.034;3.742;2024-03-25T03:24:09;18.55;;;9.40;;
34019;SDS011;20895;51.034;3.742;2024-03-25T03:26:35;14.35;;;9.82;;
34019;SDS011;20895;51.034;3.742;2024-03-25T03:29:00;18.15;;;8.07;;
34019;SDS011;20895;51.034;3.742;2024-03-25T03:31:26;14.50;;;7.90;;
34019;SDS011;20895;51.034;3.742;2024-03-25T03:33:51;18.85;;;9.32;;
34019;SDS011;20895;51.034;3.742;2024-03-25T03:36:21;15.68;;;9.13;;
34019;SDS011;20895;51.034;3.742;2024-03-25T03:38:47;22.23;;;10.00;;
34019;SDS011;20895;51.034;3.742;2024-03-25T03:41:12;14.45;;;8.77;;
34019;SDS011;20895;51.034;3.742;2024-03-25T03:43:38;15.52;;;9.07;;
34019;SDS011;20895;51.034;3.742;2024-03-25T03:46:03;15.43;;;8.95;;
34019;SDS011;20895;51.034;3.742;2024-03-25T03:48:29;11.75;;;8.63;;
34019;SDS011;20895;51.034;3.742;2024-03-25T03:50:54;11.07;;;8.55;;
34019;SDS011;20895;51.034;3.742;2024-03-25T03:53:19;14.85;;;9.23;;
34019;SDS011;20895;51.034;3.742;2024-03-25T03:55:57;18.00;;;9.38;;
34019;SDS011;20895;51.034;3.742;2024-03-25T03:58:23;16.30;;;9.95;;
34019;SDS011;20895;51.034;3.742;2024-03-25T04:00:49;17.38;;;8.98;;
34019;SDS011;20895;51.034;3.742;2024-03-25T04:03:14;17.52;;;9.10;;
34019;SDS011;20895;51.034;3.742;2024-03-25T04:05:39;13.95;;;9.18;;
34019;SDS011;20895;51.034;3.742;2024-03-25T04:08:04;21.40;;;9.20;;
34019;SDS011;20895;51.034;3.742;2024-03-25T04:10:30;19.08;;;8.32;;
34019;SDS011;20895;51.034;3.742;2024-03-25T04:12:55;14.48;;;8.13;;
34019;SDS011;20895;51.034;3.742;2024-03-25T04:15:21;17.95;;;9.18;;
34019;SDS011;20895;51.034;3.742;2024-03-25T04:17:47;19.13;;;9.45;;
34019;SDS011;20895;51.034;3.742;2024-03-25T04:20:14;16.00;;;9.43;;
34019;SDS011;20895;51.034;3.742;2024-03-25T04:22:43;20.00;;;9.07;;
34019;SDS011;20895;51.034;3.742;2024-03-25T04:25:11;21.40;;;10.35;;
34019;SDS011;20895;51.034;3.742;2024-03-25T04:27:46;26.08;;;10.70;;
34019;SDS011;20895;51.034;3.742;2024-03-25T04:30:11;25.13;;;10.50;;
34019;SDS011;20895;51.034;3.742;2024-03-25T04:32:37;21.73;;;9.57;;
34019;SDS011;20895;51.034;3.742;2024-03-25T04:35:02;27.00;;;10.70;;
34019;SDS011;20895;51.034;3.742;2024-03-25T04:37:28;19.98;;;10.25;;
34019;SDS011;20895;51.034;3.742;2024-03-25T04:39:54;22.85;;;10.38;;
34019;SDS011;20895;51.034;3.742;2024-03-25T04:42:20;32.95;;;11.25;;
34019;SDS011;20895;51.034;3.742;2024-03-25T04:44:46;25.90;;;10.95;;
34019;SDS011;20895;51.034;3.742;2024-03-25T04:47:11;23.10;;;10.07;;
34019;SDS011;20895;51.034;3.742;2024-03-25T04:49:37;24.52;;;11.10;;
34019;SDS011;20895;51.034;3.742;2024-03-25T04:52:03;25.08;;;11.65;;
34019;SDS011;20895;51.034;3.742;2024-03-25T04:54:28;28.50;;;11.82;;
34019;SDS011;20895;51.034;3.742;2024-03-25T04:56:53;23.80;;;12.70;;
34019;SDS011;20895;51.034;3.742;2024-03-25T04:59:18;35.85;;;12.63;;
34019;SDS011;20895;51.034;3.742;2024-03-25T05:01:44;25.38;;;11.57;;
34019;SDS011;20895;51.034;3.742;2024-03-25T05:04:09;35.33;;;13.35;;
34019;SDS011;20895;51.034;3.742;2024-03-25T05:06:35;38.42;;;12.90;;
34019;SDS011;20895;51.034;3.742;2024-03-25T05:09:01;33.00;;;12.50;;
34019;SDS011;20895;51.034;3.742;2024-03-25T05:11:27;45.33;;;13.65;;
34019;SDS011;20895;51.034;3.742;2024-03-25T05:13:53;44.55;;;14.57;;
34019;SDS011;20895;51.034;3.742;2024-03-25T05:16:18;41.88;;;14.93;;
34019;SDS011;20895;51.034;3.742;2024-03-25T05:18:44;30.40;;;15.18;;
34019;SDS011;20895;51.034;3.742;2024-03-25T05:21:09;30.83;;;14.55;;
34019;SDS011;20895;51.034;3.742;2024-03-25T05:23:35;42.40;;;15.02;;
34019;SDS011;20895;51.034;3.742;2024-03-25T05:26:00;29.58;;;14.15;;
34019;SDS011;20895;51.034;3.742;2024-03-25T05:28:25;28.38;;;15.07;;
34019;SDS011;20895;51.034;3.742;2024-03-25T05:30:51;29.73;;;14.38;;
34019;SDS011;20895;51.034;3.742;2024-03-25T05:33:16;31.60;;;15.15;;
34019;SDS011;20895;51.034;3.742;2024-03-25T05:35:41;37.17;;;15.52;;
34019;SDS011;20895;51.034;3.742;2024-03-25T05:38:07;36.13;;;15.85;;
34019;SDS011;20895;51.034;3.742;2024-03-25T05:40:32;44.72;;;17.17;;
34019;SDS011;20895;51.034;3.742;2024-03-25T05:42:57;41.58;;;19.25;;
34019;SDS011;20895;51.034;3.742;2024-03-25T05:45:23;44.70;;;17.92;;
34019;SDS011;20895;51.034;3.742;2024-03-25T05:47:49;51.97;;;18.20;;
34019;SDS011;20895;51.034;3.742;2024-03-25T05:50:15;33.65;;;16.33;;
34019;SDS011;20895;51.034;3.742;2024-03-25T05:52:40;45.70;;;18.30;;
34019;SDS011;20895;51.034;3.742;2024-03-25T05:55:06;45.85;;;19.63;;
34019;SDS011;20895;51.034;3.742;2024-03-25T05:57:31;56.45;;;20.90;;
34019;SDS011;20895;51.034;3.742;2024-03-25T05:59:57;50.45;;;17.83;;
34019;SDS011;20895;51.034;3.742;2024-03-25T06:02:22;47.58;;;17.52;;
34019;SDS011;20895;51.034;3.742;2024-03-25T06:04:47;44.88;;;17.52;;
34019;SDS011;20895;51.034;3.742;2024-03-25T06:07:13;46.25;;;18.02;;
34019;SDS011;20895;51.034;3.742;2024-03-25T06:09:38;49.70;;;16.50;;
34019;SDS011;20895;51.034;3.742;2024-03-25T06:12:04;48.42;;;18.90;;
34019;SDS011;20895;51.034;3.742;2024-03-25T06:14:29;45.05;;;16.98;;
34019;SDS011;20895;51.034;3.742;2024-03-25T06:16:54;51.08;;;18.67;;
34019;SDS011;20895;51.034;3.742;2024-03-25T06:19:20;50.92;;;19.10;;
34019;SDS011;20895;51.034;3.742;2024-03-25T06:21:45;42.85;;;16.67;;
34019;SDS011;20895;51.034;3.742;2024-03-25T06:24:10;47.10;;;16.75;;
34019;SDS011;20895;51.034;3.742;2024-03-25T06:26:36;47.50;;;18.05;;
34019;SDS011;20895;51.034;3.742;2024-03-25T06:29:01;63.10;;;19.13;;
34019;SDS011;20895;51.034;3.742;2024-03-25T06:31:27;48.65;;;17.27;;
34019;SDS011;20895;51.034;3.742;2024-03-25T06:34:11;44.90;;;16.92;;
34019;SDS011;20895;51.034;3.742;2024-03-25T06:36:42;45.40;;;19.13;;
34019;SDS011;20895;51.034;3.742;2024-03-25T06:39:08;48.63;;;16.23;;
34019;SDS011;20895;51.034;3.742;2024-03-25T06:41:34;47.38;;;16.15;;
34019;SDS011;20895;51.034;3.742;2024-03-25T06:43:59;47.00;;;16.90;;
34019;SDS011;20895;51.034;3.742;2024-03-25T06:46:24;40.55;;;15.70;;
34019;SDS011;20895;51.034;3.742;2024-03-25T06:48:50;41.70;;;16.27;;
34019;SDS011;20895;51.034;3.742;2024-03-25T06:51:17;33.17;;;15.25;;
34019;SDS011;20895;51.034;3.742;2024-03-25T06:53:42;45.20;;;17.92;;
34019;SDS011;20895;51.034;3.742;2024-03-25T06:56:08;39.63;;;15.77;;
34019;SDS011;20895;51.034;3.742;2024-03-25T06:58:33;34.10;;;15.48;;
34019;SDS011;20895;51.034;3.742;2024-03-25T07:01:03;34.75;;;14.75;;
34019;SDS011;20895;51.034;3.742;2024-03-25T07:03:29;37.20;;;15.05;;
34019;SDS011;20895;51.034;3.742;2024-03-25T07:05:54;43.80;;;15.45;;
34019;SDS011;20895;51.034;3.742;2024-03-25T07:08:20;37.70;;;16.25;;
34019;SDS011;20895;51.034;3.742;2024-03-25T07:10:46;34.50;;;14.38;;
34019;SDS011;20895;51.034;3.742;2024-03-25T07:13:11;31.88;;;14.27;;
34019;SDS011;20895;51.034;3.742;2024-03-25T07:15:37;42.10;;;14.50;;
34019;SDS011;20895;51.034;3.742;2024-03-25T07:18:03;38.72;;;13.73;;
34019;SDS011;20895;51.034;3.742;2024-03-25T07:20:28;33.97;;;15.30;;
34019;SDS011;20895;51.034;3.742;2024-03-25T07:22:53;28.98;;;12.93;;
34019;SDS011;20895;51.034;3.742;2024-03-25T07:25:22;30.00;;;14.63;;
34019;SDS011;20895;51.034;3.742;2024-03-25T07:27:47;36.80;;;14.68;;
34019;SDS011;20895;51.034;3.742;2024-03-25T07:30:13;31.65;;;12.85;;
34019;SDS011;20895;51.034;3.742;2024-03-25T07:32:39;39.05;;;14.40;;
34019;SDS011;20895;51.034;3.742;2024-03-25T07:35:04;30.48;;;13.98;;
34019;SDS011;20895;51.034;3.742;2024-03-25T07:37:30;29.05;;;14.55;;
34019;SDS011;20895;51.034;3.742;2024-03-25T07:39:55;22.80;;;13.10;;
34019;SDS011;20895;51.034;3.742;2024-03-25T07:42:21;25.17;;;11.30;;
34019;SDS011;20895;51.034;3.742;2024-03-25T07:44:46;27.05;;;11.07;;
34019;SDS011;20895;51.034;3.742;2024-03-25T07:47:11;22.08;;;12.18;;
34019;SDS011;20895;51.034;3.742;2024-03-25T07:49:37;23.90;;;11.93;;
34019;SDS011;20895;51.034;3.742;2024-03-25T07:52:03;25.05;;;11.75;;
34019;SDS011;20895;51.034;3.742;2024-03-25T07:54:28;24.90;;;10.45;;
34019;SDS011;20895;51.034;3.742;2024-03-25T07:56:54;32.58;;;12.30;;
34019;SDS011;20895;51.034;3.742;2024-03-25T07:59:19;27.30;;;14.00;;
34019;SDS011;20895;51.034;3.742;2024-03-25T08:01:44;32.03;;;15.07;;
34019;SDS011;20895;51.034;3.742;2024-03-25T08:04:10;20.60;;;10.43;;
34019;SDS011;20895;51.034;3.742;2024-03-25T08:06:35;25.98;;;10.73;;
34019;SDS011;20895;51.034;3.742;2024-03-25T08:09:00;20.52;;;10.63;;
34019;SDS011;20895;51.034;3.742;2024-03-25T08:11:26;22.77;;;9.20;;
34019;SDS011;20895;51.034;3.742;2024-03-25T08:13:52;23.48;;;9.98;;
34019;SDS011;20895;51.034;3.742;2024-03-25T08:16:17;19.77;;;10.25;;
34019;SDS011;20895;51.034;3.742;2024-03-25T08:18:42;23.45;;;11.57;;
34019;SDS011;20895;51.034;3.742;2024-03-25T08:21:07;18.90;;;9.75;;
34019;SDS011;20895;51.034;3.742;2024-03-25T08:23:33;20.50;;;10.57;;
34019;SDS011;20895;51.034;3.742;2024-03-25T08:25:58;17.45;;;9.57;;
34019;SDS011;20895;51.034;3.742;2024-03-25T08:28:23;20.13;;;9.38;;
34019;SDS011;20895;51.034;3.742;2024-03-25T08:30:48;22.30;;;9.05;;
34019;SDS011;20895;51.034;3.742;2024-03-25T08:33:14;17.10;;;8.80;;
34019;SDS011;20895;51.034;3.742;2024-03-25T08:35:39;16.60;;;8.98;;
34019;SDS011;20895;51.034;3.742;2024-03-25T08:38:04;19.50;;;9.43;;
34019;SDS011;20895;51.034;3.742;2024-03-25T08:40:30;18.23;;;9.75;;
34019;SDS011;20895;51.034;3.742;2024-03-25T08:42:55;14.63;;;8.93;;
34019;SDS011;20895;51.034;3.742;2024-03-25T08:45:20;18.63;;;9.70;;
34019;SDS011;20895;51.034;3.742;2024-03-25T08:47:46;19.10;;;9.93;;
34019;SDS011;20895;51.034;3.742;2024-03-25T08:50:11;18.45;;;9.27;;
34019;SDS011;20895;51.034;3.742;2024-03-25T08:52:36;15.00;;;9.25;;
34019;SDS011;20895;51.034;3.742;2024-03-25T08:55:05;23.60;;;10.50;;
34019;SDS011;20895;51.034;3.742;2024-03-25T08:57:30;17.08;;;8.70;;
34019;SDS011;20895;51.034;3.742;2024-03-25T08:59:55;27.25;;;8.75;;
34019;SDS011;20895;51.034;3.742;2024-03-25T09:02:21;20.67;;;9.30;;
34019;SDS011;20895;51.034;3.742;2024-03-25T09:04:46;17.63;;;7.85;;
34019;SDS011;20895;51.034;3.742;2024-03-25T09:07:13;15.55;;;8.77;;
34019;SDS011;20895;51.034;3.742;2024-03-25T09:09:38;14.75;;;7.93;;
34019;SDS011;20895;51.034;3.742;2024-03-25T09:12:22;18.20;;;8.65;;
34019;SDS011;20895;51.034;3.742;2024-03-25T09:14:48;19.83;;;7.75;;
34019;SDS011;20895;51.034;3.742;2024-03-25T09:17:13;15.57;;;7.32;;
34019;SDS011;20895;51.034;3.742;2024-03-25T09:19:39;18.67;;;7.47;;
34019;SDS011;20895;51.034;3.742;2024-03-25T09:22:04;16.25;;;7.70;;
34019;SDS011;20895;51.034;3.742;2024-03-25T09:24:29;16.85;;;7.28;;
34019;SDS011;20895;51.034;3.742;2024-03-25T09:26:54;14.70;;;7.55;;
34019;SDS011;20895;51.034;3.742;2024-03-25T09:29:20;13.02;;;6.70;;
34019;SDS011;20895;51.034;3.742;2024-03-25T09:31:45;18.50;;;7.68;;
34019;SDS011;20895;51.034;3.742;2024-03-25T09:34:10;16.60;;;7.30;;
34019;SDS011;20895;51.034;3.742;2024-03-25T09:36:36;21.73;;;7.32;;
34019;SDS011;20895;51.034;3.742;2024-03-25T09:39:01;19.17;;;7.63;;
34019;SDS011;20895;51.034;3.742;2024-03-25T09:41:26;20.55;;;7.95;;
34019;SDS011;20895;51.034;3.742;2024-03-25T09:43:54;17.73;;;6.55;;
34019;SDS011;20895;51.034;3.742;2024-03-25T09:46:20;14.85;;;6.53;;
34019;SDS011;20895;51.034;3.742;2024-03-25T09:48:46;14.45;;;6.30;;
34019;SDS011;20895;51.034;3.742;2024-03-25T09:51:12;13.55;;;6.43;;
34019;SDS011;20895;51.034;3.742;2024-03-25T09:53:37;16.75;;;6.88;;
34019;SDS011;20895;51.034;3.742;2024-03-25T09:56:02;13.43;;;6.90;;
34019;SDS011;20895;51.034;3.742;2024-03-25T09:58:28;17.52;;;6.95;;
34019;SDS011;20895;51.034;3.742;2024-03-25T10:00:54;17.20;;;7.00;;
34019;SDS011;20895;51.034;3.742;2024-03-25T10:03:20;13.50;;;6.18;;
34019;SDS011;20895;51.034;3.742;2024-03-25T10:05:46;13.85;;;6.63;;
34019;SDS011;20895;51.034;3.742;2024-03-25T10:08:11;16.88;;;6.57;;
34019;SDS011;20895;51.034;3.742;2024-03-25T10:10:36;13.05;;;5.82;;
34019;SDS011;20895;51.034;3.742;2024-03-25T10:13:05;12.75;;;6.10;;
34019;SDS011;20895;51.034;3.742;2024-03-25T10:15:30;11.18;;;5.72;;
34019;SDS011;20895;51.034;3.742;2024-03-25T10:17:57;15.15;;;6.22;;
34019;SDS011;20895;51.034;3.742;2024-03-25T10:20:22;11.07;;;5.00;;
34019;SDS011;20895;51.034;3.742;2024-03-25T10:22:47;12.75;;;5.53;;
34019;SDS011;20895;51.034;3.742;2024-03-25T10:25:23;13.05;;;5.70;;
34019;SDS011;20895;51.034;3.742;2024-03-25T10:30:20;8.65;;;4.10;;
34019;SDS011;20895;51.034;3.742;2024-03-25T10:32:45;10.18;;;5.05;;
34019;SDS011;20895;51.034;3.742;2024-03-25T10:35:10;10.20;;;4.70;;
34019;SDS011;20895;51.034;3.742;2024-03-25T10:37:36;14.95;;;6.25;;
34019;SDS011;20895;51.034;3.742;2024-03-25T10:40:01;10.30;;;5.15;;
34019;SDS011;20895;51.034;3.742;2024-03-25T10:42:29;9.73;;;4.32;;
34019;SDS011;20895;51.034;3.742;2024-03-25T10:44:55;10.43;;;4.68;;
34019;SDS011;20895;51.034;3.742;2024-03-25T10:47:24;15.77;;;5.78;;
34019;SDS011;20895;51.034;3.742;2024-03-25T10:49:55;14.43;;;5.43;;
34019;SDS011;20895;51.034;3.742;2024-03-25T10:52:21;14.98;;;5.43;;
34019;SDS011;20895;51.034;3.742;2024-03-25T10:54:47;15.00;;;4.72;;
34019;SDS011;20895;51.034;3.742;2024-03-25T10:57:12;9.48;;;5.07;;
34019;SDS011;20895;51.034;3.742;2024-03-25T10:59:38;12.52;;;5.65;;
34019;SDS011;20895;51.034;3.742;2024-03-25T11:02:06;11.00;;;5.82;;
34019;SDS011;20895;51.034;3.742;2024-03-25T11:04:32;10.63;;;4.70;;
34019;SDS011;20895;51.034;3.742;2024-03-25T11:07:07;10.27;;;5.60;;
34019;SDS011;20895;51.034;3.742;2024-03-25T11:09:32;9.88;;;4.95;;
34019;SDS011;20895;51.034;3.742;2024-03-25T11:11:58;11.98;;;4.55;;
34019;SDS011;20895;51.034;3.742;2024-03-25T11:14:26;10.45;;;4.70;;
34019;SDS011;20895;51.034;3.742;2024-03-25T11:16:52;10.68;;;5.80;;
34019;SDS011;20895;51.034;3.742;2024-03-25T11:19:17;11.93;;;6.18;;
34019;SDS011;20895;51.034;3.742;2024-03-25T11:21:43;17.55;;;5.85;;
34019;SDS011;20895;51.034;3.742;2024-03-25T11:24:08;11.45;;;5.72;;
34019;SDS011;20895;51.034;3.742;2024-03-25T11:26:34;8.80;;;3.72;;
34019;SDS011;20895;51.034;3.742;2024-03-25T11:29:01;11.32;;;3.47;;
34019;SDS011;20895;51.034;3.742;2024-03-25T11:31:26;8.63;;;4.20;;
34019;SDS011;20895;51.034;3.742;2024-03-25T11:33:52;7.05;;;3.50;;
34019;SDS011;20895;51.034;3.742;2024-03-25T11:36:17;9.63;;;3.53;;
34019;SDS011;20895;51.034;3.742;2024-03-25T11:39:00;10.00;;;4.15;;
34019;SDS011;20895;51.034;3.742;2024-03-25T11:41:28;7.22;;;3.92;;
34019;SDS011;20895;51.034;3.742;2024-03-25T11:43:54;8.68;;;4.15;;
34019;SDS011;20895;51.034;3.742;2024-03-25T11:46:19;12.55;;;4.75;;
34019;SDS011;20895;51.034;3.742;2024-03-25T11:48:44;9.00;;;4.90;;
34019;SDS011;20895;51.034;3.742;2024-03-25T11:51:16;9.30;;;4.45;;
34019;SDS011;20895;51.034;3.742;2024-03-25T11:53:41;9.32;;;4.53;;
34019;SDS011;20895;51.034;3.742;2024-03-25T11:56:06;9.20;;;4.88;;
34019;SDS011;20895;51.034;3.742;2024-03-25T11:58:32;7.20;;;3.80;;
34019;SDS011;20895;51.034;3.742;2024-03-25T12:00:57;8.85;;;4.30;;
34019;SDS011;20895;51.034;3.742;2024-03-25T12:03:22;10.73;;;3.88;;
34019;SDS011;20895;51.034;3.742;2024-03-25T12:05:48;8.48;;;3.47;;
34019;SDS011;20895;51.034;3.742;2024-03-25T12:08:13;8.75;;;4.40;;
34019;SDS011;20895;51.034;3.742;2024-03-25T12:10:38;5.78;;;2.63;;
34019;SDS011;20895;51.034;3.742;2024-03-25T12:13:23;7.80;;;2.95;;
34019;SDS011;20895;51.034;3.742;2024-03-25T12:15:50;5.93;;;3.30;;
34019;SDS011;20895;51.034;3.742;2024-03-25T12:18:15;5.85;;;3.13;;
34019;SDS011;20895;51.034;3.742;2024-03-25T12:20:40;7.97;;;3.58;;
34019;SDS011;20895;51.034;3.742;2024-03-25T12:23:06;8.25;;;3.60;;
34019;SDS011;20895;51.034;3.742;2024-03-25T12:25:31;11.00;;;4.25;;
34019;SDS011;20895;51.034;3.742;2024-03-25T12:27:57;6.93;;;4.00;;
34019;SDS011;20895;51.034;3.742;2024-03-25T12:30:22;6.55;;;3.42;;
34019;SDS011;20895;51.034;3.742;2024-03-25T12:32:48;5.72;;;3.65;;
34019;SDS011;20895;51.034;3.742;2024-03-25T12:35:17;7.15;;;3.10;;
34019;SDS011;20895;51.034;3.742;2024-03-25T12:37:43;7.90;;;4.03;;
34019;SDS011;20895;51.034;3.742;2024-03-25T12:40:10;8.68;;;4.30;;
34019;SDS011;20895;51.034;3.742;2024-03-25T12:42:35;8.35;;;4.65;;
34019;SDS011;20895;51.034;3.742;2024-03-25T12:45:01;8.32;;;3.75;;
34019;SDS011;20895;51.034;3.742;2024-03-25T12:47:28;7.22;;;3.50;;
34019;SDS011;20895;51.034;3.742;2024-03-25T12:49:53;6.40;;;3.40;;
34019;SDS011;20895;51.034;3.742;2024-03-25T12:52:18;7.50;;;2.85;;
34019;SDS011;20895;51.034;3.742;2024-03-25T12:54:44;5.45;;;2.67;;
34019;SDS011;20895;51.034;3.742;2024-03-25T12:57:10;4.25;;;2.90;;
34019;SDS011;20895;51.034;3.742;2024-03-25T12:59:36;5.00;;;2.90;;
34019;SDS011;20895;51.034;3.742;2024-03-25T13:02:01;5.10;;;2.17;;
34019;SDS011;20895;51.034;3.742;2024-03-25T13:04:27;14.05;;;3.67;;
34019;SDS011;20895;51.034;3.742;2024-03-25T13:06:53;8.50;;;2.65;;
34019;SDS011;20895;51.034;3.742;2024-03-25T13:09:18;7.28;;;2.00;;
34019;SDS011;20895;51.034;3.742;2024-03-25T13:11:43;3.95;;;1.60;;
34019;SDS011;20895;51.034;3.742;2024-03-25T13:14:10;4.50;;;1.80;;
34019;SDS011;20895;51.034;3.742;2024-03-25T13:16:36;4.40;;;1.45;;
34019;SDS011;20895;51.034;3.742;2024-03-25T13:19:02;4.10;;;1.55;;
34019;SDS011;20895;51.034;3.742;2024-03-25T13:21:27;6.03;;;2.10;;
34019;SDS011;20895;51.034;3.742;2024-03-25T13:23:52;4.80;;;2.00;;
34019;SDS011;20895;51.034;3.742;2024-03-25T13:26:18;6.82;;;2.17;;
34019;SDS011;20895;51.034;3.742;2024-03-25T13:28:43;2.47;;;1.40;;
34019;SDS011;20895;51.034;3.742;2024-03-25T13:31:08;6.85;;;1.45;;
34019;SDS011;20895;51.034;3.742;2024-03-25T13:33:34;4.43;;;2.08;;
34019;SDS011;20895;51.034;3.742;2024-03-25T13:35:59;6.13;;;2.40;;
34019;SDS011;20895;51.034;3.742;2024-03-25T13:38:24;5.15;;;2.50;;
34019;SDS011;20895;51.034;3.742;2024-03-25T13:40:51;15.13;;;3.55;;
34019;SDS011;20895;51.034;3.742;2024-03-25T13:43:17;3.03;;;1.70;;
34019;SDS011;20895;51.034;3.742;2024-03-25T13:45:45;5.50;;;1.85;;
34019;SDS011;20895;51.034;3.742;2024-03-25T13:48:11;6.25;;;4.10;;
34019;SDS011;20895;51.034;3.742;2024-03-25T13:50:36;4.25;;;2.42;;
34019;SDS011;20895;51.034;3.742;2024-03-25T13:53:02;4.07;;;1.90;;
34019;SDS011;20895;51.034;3.742;2024-03-25T13:55:27;5.20;;;1.95;;
34019;SDS011;20895;51.034;3.742;2024-03-25T13:57:53;5.95;;;1.92;;
34019;SDS011;20895;51.034;3.742;2024-03-25T14:00:18;6.65;;;2.15;;
34019;SDS011;20895;51.034;3.742;2024-03-25T14:02:43;4.72;;;2.20;;
34019;SDS011;20895;51.034;3.742;2024-03-25T14:05:09;5.82;;;3.28;;
34019;SDS011;20895;51.034;3.742;2024-03-25T14:07:34;4.32;;;1.73;;
34019;SDS011;20895;51.034;3.742;2024-03-25T14:09:59;6.03;;;2.03;;
34019;SDS011;20895;51.034;3.742;2024-03-25T14:12:24;6.10;;;1.85;;
34019;SDS011;20895;51.034;3.742;2024-03-25T14:14:50;4.15;;;1.63;;
34019;SDS011;20895;51.034;3.742;2024-03-25T14:17:15;7.35;;;3.15;;
34019;SDS011;20895;51.034;3.742;2024-03-25T14:19:41;2.97;;;2.00;;
34019;SDS011;20895;51.034;3.742;2024-03-25T14:22:07;3.00;;;1.55;;
34019;SDS011;20895;51.034;3.742;2024-03-25T14:24:32;2.90;;;1.63;;
34019;SDS011;20895;51.034;3.742;2024-03-25T14:26:58;4.88;;;1.90;;